Time;durP1;ratioP1;P1;durP2;ratioP2;P2;SDS_P1;SDS_P2;PMS_P1;PMS_P2;Temp;Humidity;BMP_temperature;BMP_pressure;BME280_temperature;BME280_humidity;BME280_pressure;Samples;Min_cycle;Max_cycle;Signal;HPM_P1;HPM_P2
2024/02/21 00:00:41;;;;;;;36.60;21.13;;;;;;;-146.25;100.00;52643.97;2080029;28;33599;-65
2024/02/21 00:01:43;;;;;;;42.30;22.30;;;;;;;-146.25;100.00;52656.13;2081097;28;32485;-65
2024/02/21 00:02:45;;;;;;;42.05;22.52;;;;;;;-146.25;100.00;52654.09;2080018;28;35097;-65
2024/02/21 00:03:46;;;;;;;40.50;22.92;;;;;;;-146.25;100.00;52656.13;2080545;28;21169;-65
2024/02/21 00:04:48;;;;;;;43.22;23.58;;;;;;;-146.25;100.00;52599.34;2079128;28;35816;-65
2024/02/21 00:05:50;;;;;;;37.50;22.48;;;;;;;-146.25;100.00;52666.25;2080059;28;35935;-65
2024/02/21 00:06:52;;;;;;;37.92;23.80;;;;;;;-146.25;100.00;52631.78;2079763;28;33622;-65
2024/02/21 00:07:54;;;;;;;44.78;24.90;;;;;;;-146.25;100.00;52672.34;2079904;28;37672;-66
2024/02/21 00:08:56;;;;;;;47.80;24.60;;;;;;;-146.25;100.00;52599.34;2080158;28;33154;-65
2024/02/21 00:09:57;;;;;;;48.72;24.90;;;;;;;-146.25;100.00;52631.78;2080332;28;37313;-65
2024/02/21 00:10:59;;;;;;;46.97;23.90;;;;;;;-146.25;100.00;52645.97;2080586;28;20089;-65
2024/02/21 00:12:01;;;;;;;44.28;24.60;;;;;;;-146.25;100.00;52645.97;2080640;28;37608;-65
2024/02/21 00:13:05;;;;;;;43.83;25.23;;;;;;;-146.25;100.00;52654.09;2080118;28;38632;-65
2024/02/21 00:14:07;;;;;;;42.10;25.60;;;;;;;-146.25;100.00;52629.75;2080405;28;34620;-65
2024/02/21 00:15:09;;;;;;;45.47;25.35;;;;;;;-146.25;100.00;52635.84;2079039;28;37468;-65
2024/02/21 00:16:11;;;;;;;40.88;24.67;;;;;;;-146.25;100.00;52664.22;2080874;28;20908;-65
2024/02/21 00:17:13;;;;;;;44.47;25.60;;;;;;;-146.25;100.00;52656.13;2080241;28;37309;-65
2024/02/21 00:18:14;;;;;;;44.13;25.77;;;;;;;-146.25;100.00;52607.47;2080431;28;38011;-65
2024/02/21 00:19:17;;;;;;;42.78;25.90;;;;;;;-146.25;100.00;52615.56;2079837;28;32786;-65
2024/02/21 00:20:19;;;;;;;45.47;25.20;;;;;;;-146.25;100.00;52656.13;2080241;28;33109;-65
2024/02/21 00:21:23;;;;;;;43.13;24.95;;;;;;;-146.25;100.00;52635.84;2080424;28;20042;-65
2024/02/21 00:22:28;;;;;;;47.38;24.90;;;;;;;-146.25;100.00;52639.91;2071336;28;38138;-65
2024/02/21 00:23:29;;;;;;;43.67;25.13;;;;;;;-146.25;100.00;52650.03;2071897;28;36413;-66
2024/02/21 00:24:31;;;;;;;42.17;25.98;;;;;;;-146.25;100.00;52617.59;2080541;28;31208;-65
2024/02/21 00:25:33;;;;;;;44.30;25.17;;;;;;;-146.25;100.00;52627.75;2080435;28;26610;-64
2024/02/21 00:26:35;;;;;;;42.85;24.90;;;;;;;-146.25;100.00;52656.13;2080432;28;35214;-65
2024/02/21 00:27:37;;;;;;;46.08;25.13;;;;;;;-146.25;100.00;52629.75;2080023;28;34549;-65
2024/02/21 00:28:41;;;;;;;37.40;24.90;;;;;;;-146.25;100.00;52684.50;2080363;28;32878;-65
2024/02/21 00:29:43;;;;;;;38.60;24.83;;;;;;;-146.25;100.00;52639.91;2063049;28;39458;-64
2024/02/21 00:30:44;;;;;;;43.97;24.65;;;;;;;-146.25;100.00;52623.69;2063889;28;35140;-66
2024/02/21 00:31:49;;;;;;;37.75;25.20;;;;;;;-146.25;100.00;52664.22;2070697;28;35406;-65
2024/02/21 00:32:53;;;;;;;48.65;26.40;;;;;;;-146.25;100.00;52633.81;2071212;28;36305;-65
2024/02/21 00:33:55;;;;;;;42.13;24.83;;;;;;;-146.25;100.00;52635.84;2072420;28;20053;-65
2024/02/21 00:34:57;;;;;;;42.38;25.05;;;;;;;-146.25;100.00;52690.59;2080015;28;36744;-65
2024/02/21 00:36:01;;;;;;;42.88;24.02;;;;;;;-146.25;100.00;52645.97;2080248;28;20054;-65
2024/02/21 00:37:02;;;;;;;36.58;23.92;;;;;;;-146.25;100.00;52643.97;2080282;28;36434;-66
2024/02/21 00:38:04;;;;;;;41.78;25.67;;;;;;;-146.25;100.00;52652.06;2080115;28;32340;-66
2024/02/21 00:39:06;;;;;;;43.72;25.27;;;;;;;-146.25;100.00;52668.28;2080128;28;32907;-65
2024/02/21 00:40:08;;;;;;;43.83;24.40;;;;;;;-146.25;100.00;52641.94;2079949;28;38317;-65
2024/02/21 00:41:10;;;;;;;37.33;24.25;;;;;;;-146.25;100.00;52625.72;2080857;28;20808;-66
2024/02/21 00:42:12;;;;;;;43.15;24.15;;;;;;;-146.25;100.00;52668.28;2079514;28;37789;-66
2024/02/21 00:43:14;;;;;;;43.33;23.80;;;;;;;-146.25;100.00;52664.22;2080657;28;31999;-66
2024/02/21 00:44:15;;;;;;;40.65;24.27;;;;;;;-146.25;100.00;52605.44;2079742;28;34081;-65
2024/02/21 00:45:17;;;;;;;43.90;25.00;;;;;;;-146.25;100.00;52688.56;2080391;28;37475;-65
2024/02/21 00:46:19;;;;;;;38.17;22.27;;;;;;;-146.25;100.00;52635.84;2080147;28;20058;-66
2024/02/21 00:47:21;;;;;;;43.85;24.13;;;;;;;-146.25;100.00;52648.00;2079327;28;36742;-65
2024/02/21 00:48:22;;;;;;;45.08;23.38;;;;;;;-146.25;100.00;52680.47;2080224;28;33945;-65
2024/02/21 00:49:24;;;;;;;39.25;22.65;;;;;;;-146.25;100.00;52637.88;2080142;28;34266;-65
2024/02/21 00:50:26;;;;;;;40.72;24.45;;;;;;;-146.25;100.00;52668.28;2078578;28;37517;-65
2024/02/21 00:51:30;;;;;;;39.70;23.02;;;;;;;-146.25;100.00;52672.34;2080448;28;20034;-65
2024/02/21 00:52:32;;;;;;;39.92;23.42;;;;;;;-146.25;100.00;52615.56;2079647;28;33705;-65
2024/02/21 00:53:34;;;;;;;41.20;21.95;;;;;;;-146.25;100.00;52619.63;2080629;28;29544;-65
2024/02/21 00:54:35;;;;;;;39.00;22.48;;;;;;;-146.25;100.00;52648.00;2078755;28;33433;-66
2024/02/21 00:55:43;;;;;;;39.35;23.10;;;;;;;-146.25;100.00;52662.22;2079382;28;37958;-65
2024/02/21 00:56:45;;;;;;;39.80;22.48;;;;;;;-146.25;100.00;52654.09;2078996;28;36327;-65
2024/02/21 00:57:46;;;;;;;35.72;21.98;;;;;;;-146.25;100.00;52643.97;2079056;28;36631;-65
2024/02/21 00:58:53;;;;;;;46.08;22.60;;;;;;;-146.25;100.00;52631.78;2080105;28;33219;-65
2024/02/21 00:59:54;;;;;;;40.15;22.33;;;;;;;-146.25;100.00;52650.03;2080254;28;34132;-65
2024/02/21 01:00:56;;;;;;;36.15;20.98;;;;;;;-146.25;100.00;52603.41;2079589;28;38309;-65
2024/02/21 01:02:00;;;;;;;36.83;21.33;;;;;;;-146.25;100.00;52631.78;2080873;28;20920;-65
2024/02/21 01:03:07;;;;;;;38.30;21.85;;;;;;;-146.25;100.00;52631.78;2079647;28;35432;-65
2024/02/21 01:04:12;;;;;;;36.47;22.30;;;;;;;-146.25;100.00;52639.91;2080452;28;34963;-65
2024/02/21 01:05:13;;;;;;;35.88;21.30;;;;;;;-146.25;100.00;52627.75;2079615;28;35782;-65
2024/02/21 01:06:15;;;;;;;42.25;21.52;;;;;;;-146.25;100.00;52643.97;2079592;28;38984;-65
2024/02/21 01:07:17;;;;;;;35.47;21.40;;;;;;;-146.25;100.00;52617.59;2080343;28;20201;-65
2024/02/21 01:08:19;;;;;;;35.60;21.33;;;;;;;-146.25;100.00;52639.91;2080548;28;35294;-65
2024/02/21 01:09:20;;;;;;;34.20;21.45;;;;;;;-146.25;100.00;52643.97;2070703;28;33838;-65
2024/02/21 01:10:22;;;;;;;39.00;21.10;;;;;;;-146.25;100.00;52637.88;2071993;28;20042;-66
2024/02/21 01:11:24;;;;;;;37.65;20.75;;;;;;;-146.25;100.00;52623.69;2080298;28;20045;-65
2024/02/21 01:12:26;;;;;;;35.13;20.77;;;;;;;-146.25;100.00;52627.75;2079906;28;36137;-65
2024/02/21 01:13:28;;;;;;;38.20;20.55;;;;;;;-146.25;100.00;52639.91;2079983;28;35273;-66
2024/02/21 01:14:32;;;;;;;36.72;21.00;;;;;;;-146.25;100.00;52611.50;2080177;28;35370;-65
2024/02/21 01:15:34;;;;;;;36.80;21.15;;;;;;;-146.25;100.00;52674.38;2079221;28;34904;-66
2024/02/21 01:16:35;;;;;;;33.47;20.70;;;;;;;-146.25;100.00;52631.78;2080594;28;20160;-65
2024/02/21 01:17:40;;;;;;;32.67;19.80;;;;;;;-146.25;100.00;52648.00;2079775;28;34471;-65
2024/02/21 01:18:42;;;;;;;39.45;21.65;;;;;;;-146.25;100.00;52629.75;2079565;28;35607;-65
2024/02/21 01:19:46;;;;;;;31.67;21.00;;;;;;;-146.25;100.00;52660.19;2079751;28;32541;-65
2024/02/21 01:20:48;;;;;;;33.47;20.58;;;;;;;-146.25;100.00;52680.47;2079940;28;30790;-66
2024/02/21 01:21:50;;;;;;;35.03;20.58;;;;;;;-146.25;100.00;52654.09;2080195;28;20099;-65
2024/02/21 01:22:51;;;;;;;35.13;20.67;;;;;;;-146.25;100.00;52633.81;2079639;28;36954;-65
2024/02/21 01:23:53;;;;;;;30.17;19.90;;;;;;;-146.25;100.00;52672.34;2079827;28;33597;-65
2024/02/21 01:24:57;;;;;;;34.00;21.02;;;;;;;-146.25;100.00;52639.91;2079948;28;37586;-65
2024/02/21 01:25:59;;;;;;;36.13;20.95;;;;;;;-146.25;100.00;52639.91;2079612;28;33152;-65
2024/02/21 01:27:01;;;;;;;37.55;21.30;;;;;;;-146.25;100.00;52645.97;2079761;28;34412;-65
2024/02/21 01:28:03;;;;;;;42.15;20.88;;;;;;;-146.25;100.00;52633.81;2079430;28;35423;-65
2024/02/21 01:29:05;;;;;;;34.90;19.67;;;;;;;-146.25;100.00;52627.75;2080060;28;34781;-65
2024/02/21 01:30:08;;;;;;;33.60;21.33;;;;;;;-146.25;100.00;52662.22;2079784;28;20111;-65
2024/02/21 01:31:10;;;;;;;38.13;19.77;;;;;;;-146.25;100.00;52662.22;2080949;28;31624;-65
2024/02/21 01:32:12;;;;;;;33.22;20.02;;;;;;;-146.25;100.00;52660.19;2078988;28;35093;-65
2024/02/21 01:33:13;;;;;;;31.60;19.73;;;;;;;-146.25;100.00;52607.47;2080016;28;34334;-66
2024/02/21 01:34:17;;;;;;;33.97;19.85;;;;;;;-146.25;100.00;52652.06;2080059;28;20929;-65
2024/02/21 01:35:18;;;;;;;34.13;19.67;;;;;;;-146.25;100.00;52619.63;2079779;28;37366;-65
2024/02/21 01:36:20;;;;;;;35.55;20.25;;;;;;;-146.25;100.00;52656.13;2079382;28;34398;-65
2024/02/21 01:37:22;;;;;;;31.85;18.60;;;;;;;-146.25;100.00;52627.75;2079530;28;33156;-65
2024/02/21 01:38:24;;;;;;;32.33;19.50;;;;;;;-146.25;100.00;52641.94;2079842;28;32940;-65
2024/02/21 01:39:26;;;;;;;32.30;19.50;;;;;;;-146.25;100.00;52623.69;2080328;28;20855;-66
2024/02/21 01:40:28;;;;;;;34.85;20.02;;;;;;;-146.25;100.00;52639.91;2079749;28;35969;-65
2024/02/21 01:41:31;;;;;;;31.33;19.40;;;;;;;-146.25;100.00;52666.25;2079755;28;34654;-66
2024/02/21 01:42:38;;;;;;;37.10;20.08;;;;;;;-146.25;100.00;52645.97;2079874;28;32800;-65
2024/02/21 01:43:40;;;;;;;32.00;20.17;;;;;;;-146.25;100.00;52645.97;2079946;28;31224;-65
2024/02/21 01:44:45;;;;;;;35.97;19.60;;;;;;;-146.25;100.00;52639.91;2080068;28;20034;-66
2024/02/21 01:45:50;;;;;;;38.35;20.02;;;;;;;-146.25;100.00;52645.97;2079437;28;33898;-65
2024/02/21 01:46:52;;;;;;;37.75;20.73;;;;;;;-146.25;100.00;52682.47;2070682;28;33252;-65
2024/02/21 01:47:54;;;;;;;37.40;20.40;;;;;;;-146.25;100.00;52623.69;2071557;28;22548;-65
2024/02/21 01:48:58;;;;;;;35.45;19.60;;;;;;;-146.25;100.00;52654.09;2071958;28;20030;-65
2024/02/21 01:50:03;;;;;;;31.42;18.00;;;;;;;-146.25;100.00;52593.25;2071527;28;20038;-65
2024/02/21 01:51:06;;;;;;;33.92;18.58;;;;;;;-146.25;100.00;52635.84;2071058;28;20955;-65
2024/02/21 01:52:09;;;;;;;33.60;18.75;;;;;;;-146.25;100.00;52617.59;2071454;28;36742;-65
2024/02/21 01:53:17;;;;;;;33.17;19.27;;;;;;;-146.25;100.00;52623.69;2079635;28;34587;-65
2024/02/21 01:54:21;;;;;;;32.75;18.90;;;;;;;-146.25;100.00;52595.28;2071188;28;37588;-65
2024/02/21 01:55:23;;;;;;;32.80;18.98;;;;;;;-146.25;100.00;52611.50;2070745;28;36716;-65
2024/02/21 01:56:25;;;;;;;33.33;19.05;;;;;;;-146.25;100.00;52666.25;2063836;28;20102;-65
2024/02/21 01:57:28;;;;;;;33.75;19.60;;;;;;;-146.25;100.00;52637.88;2070486;28;23826;-65
2024/02/21 01:58:30;;;;;;;34.60;19.88;;;;;;;-146.25;100.00;52637.88;2079172;28;32336;-65
2024/02/21 01:59:32;;;;;;;38.50;19.35;;;;;;;-146.25;100.00;52676.41;2078927;28;34996;-65
2024/02/21 02:00:35;;;;;;;29.83;18.80;;;;;;;-146.25;100.00;52631.78;2080225;28;27687;-65
2024/02/21 02:01:37;;;;;;;38.03;20.27;;;;;;;-146.25;100.00;52623.69;2070996;28;20937;-65
2024/02/21 02:02:40;;;;;;;35.97;18.98;;;;;;;-146.25;100.00;52615.56;2063137;28;37783;-65
2024/02/21 02:03:44;;;;;;;33.65;18.15;;;;;;;-146.25;100.00;52623.69;2070707;28;33304;-65
2024/02/21 02:04:49;;;;;;;35.90;18.88;;;;;;;-146.25;100.00;52645.97;2079420;28;31458;-65
2024/02/21 02:05:50;;;;;;;32.35;18.50;;;;;;;-146.25;100.00;52623.69;2078854;28;36463;-65
2024/02/21 02:06:55;;;;;;;35.28;18.35;;;;;;;-146.25;100.00;52676.41;2080124;28;20152;-65
2024/02/21 02:07:57;;;;;;;31.45;18.45;;;;;;;-146.25;100.00;52645.97;2070232;28;35080;-66
2024/02/21 02:08:59;;;;;;;37.55;18.20;;;;;;;-146.25;100.00;52617.59;2071842;28;31663;-65
2024/02/21 02:10:01;;;;;;;34.25;18.35;;;;;;;-146.25;100.00;52648.00;2079267;28;33504;-65
2024/02/21 02:11:06;;;;;;;36.42;17.67;;;;;;;-146.25;100.00;52639.91;2071066;28;36273;-65
2024/02/21 02:12:09;;;;;;;32.75;18.67;;;;;;;-146.25;100.00;52660.19;2072379;28;20085;-65
2024/02/21 02:13:11;;;;;;;35.95;18.27;;;;;;;-146.25;100.00;52611.50;2079491;28;36258;-65
2024/02/21 02:14:13;;;;;;;31.15;17.90;;;;;;;-146.25;100.00;52641.94;2078979;28;32791;-65
2024/02/21 02:15:14;;;;;;;32.92;17.80;;;;;;;-146.25;100.00;52615.56;2080608;28;24911;-65
2024/02/21 02:16:16;;;;;;;33.60;18.30;;;;;;;-146.25;100.00;52639.91;2079013;28;36668;-65
2024/02/21 02:17:19;;;;;;;38.13;18.00;;;;;;;-146.25;100.00;52617.59;2077061;28;31775;-66
2024/02/21 02:18:21;;;;;;;31.23;17.05;;;;;;;-146.25;100.00;52635.84;2079138;28;34344;-65
2024/02/21 02:19:23;;;;;;;31.13;17.27;;;;;;;-146.25;100.00;52627.75;2080063;28;20042;-65
2024/02/21 02:20:24;;;;;;;36.72;17.70;;;;;;;-146.25;100.00;52643.97;2078730;28;35762;-65
2024/02/21 02:21:34;;;;;;;35.58;17.95;;;;;;;-146.25;100.00;52672.34;2078724;28;34416;-65
2024/02/21 02:22:38;;;;;;;33.65;17.75;;;;;;;-146.25;100.00;52639.91;2078711;28;34472;-65
2024/02/21 02:23:42;;;;;;;36.28;18.50;;;;;;;-146.25;100.00;52621.66;2070041;28;35004;-65
2024/02/21 02:24:43;;;;;;;29.65;17.27;;;;;;;-146.25;100.00;52635.84;2070705;28;33864;-65
2024/02/21 02:25:48;;;;;;;32.28;16.90;;;;;;;-146.25;100.00;52639.91;2078466;28;26524;-65
2024/02/21 02:26:50;;;;;;;30.08;17.45;;;;;;;-146.25;100.00;52631.78;2078351;28;34971;-65
2024/02/21 02:27:54;;;;;;;31.77;17.42;;;;;;;-146.25;100.00;52652.06;2078388;28;23904;-65
2024/02/21 02:28:58;;;;;;;35.13;16.40;;;;;;;-146.25;100.00;52619.63;2078768;28;23478;-65
2024/02/21 02:30:00;;;;;;;31.33;16.67;;;;;;;-146.25;100.00;52654.09;2078907;28;34120;-65
2024/02/21 02:31:02;;;;;;;31.52;16.98;;;;;;;-146.25;100.00;52625.72;2078425;28;33792;-65
2024/02/21 02:32:04;;;;;;;31.75;17.23;;;;;;;-146.25;100.00;52635.84;2078677;28;34960;-65
2024/02/21 02:33:06;;;;;;;31.75;16.88;;;;;;;-146.25;100.00;52619.63;2078478;28;32566;-65
2024/02/21 02:34:08;;;;;;;33.13;17.23;;;;;;;-146.25;100.00;52662.22;2079078;28;34567;-65
2024/02/21 02:35:10;;;;;;;34.15;17.13;;;;;;;-146.25;100.00;52637.88;2079217;28;34586;-65
2024/02/21 02:36:12;;;;;;;32.47;17.02;;;;;;;-146.25;100.00;52652.06;2079438;28;20927;-66
2024/02/21 02:37:14;;;;;;;33.28;17.77;;;;;;;-146.25;100.00;52595.28;2078674;28;36229;-65
2024/02/21 02:38:16;;;;;;;36.30;17.27;;;;;;;-146.25;100.00;52631.78;2080248;28;28063;-65
2024/02/21 02:39:20;;;;;;;30.60;16.58;;;;;;;-146.25;100.00;52643.97;2078822;28;34166;-65
2024/02/21 02:40:22;;;;;;;29.80;16.60;;;;;;;-146.25;100.00;52611.50;2079142;28;37416;-65
2024/02/21 02:41:24;;;;;;;31.63;16.52;;;;;;;-146.25;100.00;52633.81;2079979;28;20080;-66
2024/02/21 02:42:25;;;;;;;37.22;16.92;;;;;;;-146.25;100.00;52654.09;2079579;28;34763;-65
2024/02/21 02:43:27;;;;;;;32.50;16.60;;;;;;;-146.25;100.00;52619.63;2078793;28;36675;-65
2024/02/21 02:44:29;;;;;;;32.28;17.00;;;;;;;-146.25;100.00;52637.88;2079716;28;33572;-65
2024/02/21 02:45:31;;;;;;;32.35;17.48;;;;;;;-146.25;100.00;52650.03;2079007;28;35804;-65
2024/02/21 02:46:34;;;;;;;30.50;16.85;;;;;;;-146.25;100.00;52652.06;2079170;28;32882;-65
2024/02/21 02:47:35;;;;;;;33.13;16.88;;;;;;;-146.25;100.00;52656.13;2079443;28;20041;-65
2024/02/21 02:48:38;;;;;;;31.52;16.80;;;;;;;-146.25;100.00;52601.38;2070423;28;36984;-65
2024/02/21 02:49:40;;;;;;;31.23;17.35;;;;;;;-146.25;100.00;52658.16;2070414;28;35023;-65
2024/02/21 02:50:43;;;;;;;29.23;17.02;;;;;;;-146.25;100.00;52648.00;2080507;28;20038;-65
2024/02/21 02:51:44;;;;;;;37.45;18.20;;;;;;;-146.25;100.00;52676.41;2079179;28;34304;-65
2024/02/21 02:52:48;;;;;;;32.65;17.20;;;;;;;-146.25;100.00;52631.78;2079948;28;20046;-65
2024/02/21 02:53:50;;;;;;;34.55;17.20;;;;;;;-146.25;100.00;52650.03;2078932;28;36670;-65
2024/02/21 02:54:52;;;;;;;38.25;17.35;;;;;;;-146.25;100.00;52643.97;2079238;28;34190;-65
2024/02/21 02:55:54;;;;;;;39.67;18.17;;;;;;;-146.25;100.00;52660.19;2079324;28;35293;-65
2024/02/21 02:56:57;;;;;;;34.28;17.48;;;;;;;-146.25;100.00;52652.06;2079399;28;33311;-65
2024/02/21 02:58:02;;;;;;;29.88;17.20;;;;;;;-146.25;100.00;52629.75;2079937;28;20147;-65
2024/02/21 02:59:04;;;;;;;34.20;16.65;;;;;;;-146.25;100.00;52611.50;2079422;28;37233;-66
2024/02/21 03:00:10;;;;;;;34.83;17.50;;;;;;;-146.25;100.00;52670.31;2079351;28;34771;-65
2024/02/21 03:01:14;;;;;;;33.55;17.02;;;;;;;-146.25;100.00;52623.69;2079097;28;33065;-66
2024/02/21 03:02:17;;;;;;;37.25;18.25;;;;;;;-146.25;100.00;52631.78;2078691;28;35700;-65
2024/02/21 03:03:19;;;;;;;35.40;18.30;;;;;;;-146.25;100.00;52652.06;2079380;28;34729;-65
2024/02/21 03:04:23;;;;;;;35.92;18.02;;;;;;;-146.25;100.00;52625.72;2078872;28;37275;-66
2024/02/21 03:05:25;;;;;;;37.97;18.83;;;;;;;-146.25;100.00;52654.09;2079389;28;34662;-65
2024/02/21 03:06:29;;;;;;;34.35;18.73;;;;;;;-146.25;100.00;52654.09;2078774;28;34347;-65
2024/02/21 03:07:31;;;;;;;36.08;19.05;;;;;;;-146.25;100.00;52635.84;2079034;28;37565;-66
2024/02/21 03:08:34;;;;;;;40.22;19.58;;;;;;;-146.25;100.00;52629.75;2070320;28;33783;-66
2024/02/21 03:09:35;;;;;;;41.00;19.42;;;;;;;-146.25;100.00;52615.56;2070761;28;36741;-66
2024/02/21 03:10:41;;;;;;;35.47;20.67;;;;;;;-146.25;100.00;52641.94;2078781;28;34521;-65
2024/02/21 03:11:44;;;;;;;37.83;19.50;;;;;;;-146.25;100.00;52601.38;2079814;28;20046;-65
2024/02/21 03:12:46;;;;;;;37.20;19.83;;;;;;;-146.25;100.00;52648.00;2078988;28;36607;-65
2024/02/21 03:13:50;;;;;;;38.63;19.55;;;;;;;-146.25;100.00;52658.16;2079715;28;34018;-65
2024/02/21 03:14:52;;;;;;;43.15;19.55;;;;;;;-146.25;100.00;52648.00;2078373;28;35932;-65
2024/02/21 03:15:54;;;;;;;40.83;19.38;;;;;;;-146.25;100.00;52607.47;2071520;28;20872;-65
2024/02/21 03:16:58;;;;;;;39.83;20.75;;;;;;;-146.25;100.00;52643.97;2070336;28;34994;-65
2024/02/21 03:17:59;;;;;;;37.50;20.77;;;;;;;-146.25;100.00;52678.44;2079081;28;34635;-65
2024/02/21 03:19:03;;;;;;;43.35;21.35;;;;;;;-146.25;100.00;52619.63;2079444;28;20034;-65
2024/02/21 03:20:08;;;;;;;40.13;21.42;;;;;;;-146.25;100.00;52629.75;2079518;28;30597;-65
2024/02/21 03:21:10;;;;;;;41.50;21.23;;;;;;;-146.25;100.00;52637.88;2078996;28;33849;-65
2024/02/21 03:22:12;;;;;;;45.20;22.42;;;;;;;-146.25;100.00;52629.75;2079727;28;30852;-65
2024/02/21 03:23:14;;;;;;;42.78;21.13;;;;;;;-146.25;100.00;52633.81;2079151;28;34183;-65
2024/02/21 03:24:16;;;;;;;39.63;22.15;;;;;;;-146.25;100.00;52639.91;2079398;28;33414;-66
2024/02/21 03:25:21;;;;;;;42.33;21.52;;;;;;;-146.25;100.00;52627.75;2079769;28;20038;-65
2024/02/21 03:26:22;;;;;;;46.63;22.20;;;;;;;-146.25;100.00;52633.81;2079049;28;36046;-65
2024/02/21 03:27:24;;;;;;;43.92;21.20;;;;;;;-146.25;100.00;52631.78;2079157;28;37048;-65
2024/02/21 03:28:26;;;;;;;40.22;20.70;;;;;;;-146.25;100.00;52619.63;2078803;28;34486;-65
2024/02/21 03:29:27;;;;;;;41.50;22.73;;;;;;;-146.25;100.00;52627.75;2078270;28;33399;-66
2024/02/21 03:30:29;;;;;;;44.17;23.13;;;;;;;-146.25;100.00;52621.66;2079027;28;35667;-65
2024/02/21 03:31:31;;;;;;;38.83;21.35;;;;;;;-146.25;100.00;52648.00;2077787;28;31413;-65
2024/02/21 03:32:33;;;;;;;43.30;23.52;;;;;;;-146.25;100.00;52668.28;2078296;28;37834;-65
2024/02/21 03:33:35;;;;;;;40.55;23.10;;;;;;;-146.25;100.00;52587.19;2079643;28;20108;-65
2024/02/21 03:34:38;;;;;;;46.80;23.65;;;;;;;-146.25;100.00;52650.03;2079237;28;33744;-65
2024/02/21 03:35:40;;;;;;;43.95;23.08;;;;;;;-146.25;100.00;52631.78;2078656;28;35858;-65
2024/02/21 03:36:42;;;;;;;40.55;22.48;;;;;;;-146.25;100.00;52623.69;2079508;28;20077;-65
2024/02/21 03:37:45;;;;;;;47.15;23.58;;;;;;;-146.25;100.00;52587.19;2079763;28;20089;-65
2024/02/21 03:38:47;;;;;;;42.85;22.63;;;;;;;-146.25;100.00;52625.72;2079269;28;39504;-65
2024/02/21 03:39:49;;;;;;;49.28;23.08;;;;;;;-146.25;100.00;52635.84;2080582;28;31665;-65
2024/02/21 03:40:51;;;;;;;43.75;23.00;;;;;;;-146.25;100.00;52615.56;2081238;28;20165;-65
2024/02/21 03:41:53;;;;;;;41.70;23.10;;;;;;;-146.25;100.00;52650.03;2080251;28;33735;-65
2024/02/21 03:42:57;;;;;;;47.35;23.13;;;;;;;-146.25;100.00;52635.84;2080776;28;35266;-65
2024/02/21 03:43:59;;;;;;;42.67;22.60;;;;;;;-146.25;100.00;52654.09;2080694;28;20115;-65
2024/02/21 03:45:01;;;;;;;43.67;22.60;;;;;;;-146.25;100.00;52615.56;2080621;28;34327;-65
2024/02/21 03:46:03;;;;;;;46.75;24.10;;;;;;;-146.25;100.00;52599.34;2079752;28;33883;-65
2024/02/21 03:47:05;;;;;;;42.75;22.60;;;;;;;-146.25;100.00;52643.97;2080117;28;23475;-65
2024/02/21 03:48:07;;;;;;;43.70;23.10;;;;;;;-146.25;100.00;52611.50;2079792;28;20046;-65
2024/02/21 03:49:11;;;;;;;42.45;22.17;;;;;;;-146.25;100.00;52611.50;2080548;28;39412;-64
2024/02/21 03:50:13;;;;;;;52.33;23.77;;;;;;;-146.25;100.00;52643.97;2079927;28;35395;-65
2024/02/21 03:51:18;;;;;;;45.90;22.95;;;;;;;-146.25;100.00;52635.84;2081329;28;20140;-65
2024/02/21 03:52:19;;;;;;;42.03;23.08;;;;;;;-146.25;100.00;52641.94;2080032;28;38045;-65
2024/02/21 03:53:21;;;;;;;44.78;23.25;;;;;;;-146.25;100.00;52619.63;2080584;28;32322;-66
2024/02/21 03:54:23;;;;;;;46.17;23.15;;;;;;;-146.25;100.00;52658.16;2079968;28;34586;-65
2024/02/21 03:55:25;;;;;;;46.75;23.90;;;;;;;-146.25;100.00;52607.47;2080624;28;37786;-65
2024/02/21 03:56:27;;;;;;;45.08;22.58;;;;;;;-146.25;100.00;52654.09;2079977;28;32178;-65
2024/02/21 03:57:29;;;;;;;42.47;22.13;;;;;;;-146.25;100.00;52609.50;2081402;28;20574;-65
2024/02/21 03:58:31;;;;;;;43.15;23.60;;;;;;;-146.25;100.00;52581.09;2080245;28;34237;-65
2024/02/21 03:59:33;;;;;;;44.20;22.80;;;;;;;-146.25;100.00;52621.66;2080085;28;35721;-65
2024/02/21 04:00:35;;;;;;;41.65;21.75;;;;;;;-146.25;100.00;52619.63;2080338;28;35454;-65
2024/02/21 04:01:37;;;;;;;39.13;21.88;;;;;;;-146.25;100.00;52589.22;2080426;28;36276;-64
2024/02/21 04:02:38;;;;;;;41.25;21.08;;;;;;;-146.25;100.00;52611.50;2079870;28;35945;-65
2024/02/21 04:03:40;;;;;;;40.28;20.15;;;;;;;-146.25;100.00;52623.69;2080522;28;33296;-65
2024/02/21 04:04:48;;;;;;;41.03;21.92;;;;;;;-146.25;100.00;52631.78;2079803;28;37280;-65
2024/02/21 04:05:50;;;;;;;35.17;20.85;;;;;;;-146.25;100.00;52643.97;2081423;28;20116;-65
2024/02/21 04:06:52;;;;;;;37.85;21.90;;;;;;;-146.25;100.00;52643.97;2080279;28;34243;-65
2024/02/21 04:07:56;;;;;;;34.08;20.88;;;;;;;-146.25;100.00;52603.41;2080710;28;35824;-65
2024/02/21 04:08:58;;;;;;;37.50;20.85;;;;;;;-146.25;100.00;52615.56;2079954;28;33226;-65
2024/02/21 04:09:59;;;;;;;36.83;20.70;;;;;;;-146.25;100.00;52648.00;2080465;28;37357;-65
2024/02/21 04:11:01;;;;;;;40.17;21.40;;;;;;;-146.25;100.00;52641.94;2080474;28;33606;-65
2024/02/21 04:12:04;;;;;;;36.92;20.52;;;;;;;-146.25;100.00;52619.63;2081402;28;20164;-65
2024/02/21 04:13:07;;;;;;;41.47;20.90;;;;;;;-146.25;100.00;52650.03;2079814;28;37722;-65
2024/02/21 04:14:08;;;;;;;41.60;20.48;;;;;;;-146.25;100.00;52623.69;2079896;28;35291;-65
2024/02/21 04:15:10;;;;;;;34.90;19.25;;;;;;;-146.25;100.00;52692.63;2080717;28;20952;-65
2024/02/21 04:16:12;;;;;;;34.78;20.23;;;;;;;-146.25;100.00;52625.72;2080081;28;37989;-65
2024/02/21 04:17:18;;;;;;;37.70;20.40;;;;;;;-146.25;100.00;52631.78;2080635;28;20867;-65
2024/02/21 04:18:20;;;;;;;37.10;20.40;;;;;;;-146.25;100.00;52617.59;2080872;28;20049;-64
2024/02/21 04:19:21;;;;;;;40.22;20.58;;;;;;;-146.25;100.00;52617.59;2079773;28;38047;-65
2024/02/21 04:20:23;;;;;;;40.38;20.55;;;;;;;-146.25;100.00;52609.50;2080248;28;35169;-64
2024/02/21 04:21:25;;;;;;;34.08;20.27;;;;;;;-146.25;100.00;52637.88;2080593;28;20045;-65
2024/02/21 04:22:27;;;;;;;34.58;19.30;;;;;;;-146.25;100.00;52623.69;2080242;28;33404;-65
2024/02/21 04:23:29;;;;;;;33.15;19.73;;;;;;;-146.25;100.00;52599.34;2080211;28;33250;-65
2024/02/21 04:24:31;;;;;;;36.38;19.33;;;;;;;-146.25;100.00;52635.84;2080346;28;34048;-65
2024/02/21 04:25:32;;;;;;;31.73;19.25;;;;;;;-146.25;100.00;52623.69;2079744;28;38302;-65
2024/02/21 04:26:34;;;;;;;37.92;19.92;;;;;;;-146.25;100.00;52605.44;2080604;28;34128;-65
2024/02/21 04:27:39;;;;;;;33.25;19.42;;;;;;;-146.25;100.00;52597.31;2080700;28;21009;-65
2024/02/21 04:28:41;;;;;;;34.83;19.05;;;;;;;-146.25;100.00;52635.84;2080503;28;35445;-65
2024/02/21 04:29:45;;;;;;;33.70;18.90;;;;;;;-146.25;100.00;52648.00;2079548;28;34870;-65
2024/02/21 04:30:47;;;;;;;30.38;18.50;;;;;;;-146.25;100.00;52652.06;2079981;28;35271;-65
2024/02/21 04:31:49;;;;;;;33.72;18.77;;;;;;;-146.25;100.00;52625.72;2079564;28;37399;-65
2024/02/21 04:32:51;;;;;;;34.55;19.75;;;;;;;-146.25;100.00;52593.25;2079242;28;35441;-65
2024/02/21 04:33:52;;;;;;;33.13;19.63;;;;;;;-146.25;100.00;52597.31;2079241;28;33395;-65
2024/02/21 04:34:54;;;;;;;33.08;18.90;;;;;;;-146.25;100.00;52617.59;2080389;28;36801;-65
2024/02/21 04:35:58;;;;;;;35.92;18.92;;;;;;;-146.25;100.00;52615.56;2080606;28;20093;-66
2024/02/21 04:37:00;;;;;;;30.38;19.15;;;;;;;-146.25;100.00;52607.47;2080415;28;33684;-65
2024/02/21 04:38:02;;;;;;;35.03;20.05;;;;;;;-146.25;100.00;52621.66;2079893;28;32337;-65